HEBA 020500Z 32006KT CAVOK 27/20 Q1014 NOSIG
From batch tds/metars/production/2022/10/2/h05_m24_metars.cache.csv.gz
Observed at (about 2 hours ago)
Identifier HEBA
HEBA 020400Z 33003KT CAVOK 25/21 Q1013 NOSIG
From batch tds/metars/production/2022/10/2/h04_m25_metars.cache.csv.gz
Observed at (about 3 hours ago)
Identifier HEBA
HEBA 020300Z 31005KT CAVOK 24/22 Q1013 NOSIG
From batch tds/metars/production/2022/10/2/h03_m55_metars.cache.csv.gz
Observed at (about 4 hours ago)
Identifier HEBA
HEBA 020100Z 31004KT CAVOK 24/21 Q1014 NOSIG
From batch tds/metars/production/2022/10/2/h01_m29_metars.cache.csv.gz
Observed at (about 6 hours ago)
Identifier HEBA
HEBA 020000Z 29003KT CAVOK 24/21 Q1014 NOSIG
From batch tds/metars/production/2022/10/2/h00_m21_metars.cache.csv.gz
Observed at (about 7 hours ago)
Identifier HEBA
HEBA 012300Z 30005KT CAVOK 24/21 Q1015 NOSIG
From batch tds/metars/production/2022/10/1/h23_m23_metars.cache.csv.gz
Observed at (about 8 hours ago)
Identifier HEBA
HEBA 012200Z 32007KT CAVOK 25/21 Q1015 NOSIG
From batch tds/metars/production/2022/10/1/h22_m22_metars.cache.csv.gz
Observed at (about 9 hours ago)
Identifier HEBA
HEBA 012100Z 31006KT CAVOK 25/21 Q1015 NOSIG
From batch tds/metars/production/2022/10/1/h21_m29_metars.cache.csv.gz
Observed at (about 10 hours ago)
Identifier HEBA
HEBA 012000Z 31008KT CAVOK 25/22 Q1015 NOSIG
From batch tds/metars/production/2022/10/1/h20_m27_metars.cache.csv.gz
Observed at (about 11 hours ago)
Identifier HEBA
HEBA 011900Z 31007KT CAVOK 26/23 Q1015 NOSIG
From batch tds/metars/production/2022/10/1/h19_m51_metars.cache.csv.gz
Observed at (about 12 hours ago)
Identifier HEBA
HEBA 011800Z 32008KT CAVOK 26/23 Q1016 NOSIG
From batch tds/metars/production/2022/10/1/h18_m51_metars.cache.csv.gz
Observed at (about 13 hours ago)
Identifier HEBA
HEBA 011700Z 32005KT CAVOK 27/22 Q1016 NOSIG
From batch tds/metars/production/2022/10/1/h17_m24_metars.cache.csv.gz
Observed at (about 14 hours ago)
Identifier HEBA
HEBA 011600Z 33007KT CAVOK 28/21 Q1016 NOSIG
From batch tds/metars/production/2022/10/1/h16_m29_metars.cache.csv.gz
Observed at (about 15 hours ago)
Identifier HEBA
HEBA 011500Z 32011KT CAVOK 30/18 Q1016 NOSIG
From batch tds/metars/production/2022/10/1/h15_m59_metars.cache.csv.gz
Observed at (about 16 hours ago)
Identifier HEBA
HEBA 011400Z 33008KT CAVOK 31/15 Q1016 NOSIG
From batch tds/metars/production/2022/10/1/h14_m22_metars.cache.csv.gz
Observed at (about 17 hours ago)
Identifier HEBA
HEBA 011300Z 33009KT CAVOK 33/14 Q1016 NOSIG
From batch tds/metars/production/2022/10/1/h13_m52_metars.cache.csv.gz
Observed at (about 18 hours ago)
Identifier HEBA
HEBA 011000Z 33007KT CAVOK 34/19 Q1017 NOSIG
From batch tds/metars/production/2022/10/1/h10_m25_metars.cache.csv.gz
Observed at (about 21 hours ago)
Identifier HEBA
HEBA 010800Z 06005KT CAVOK 30/20 Q1018 NOSIG
From batch tds/metars/production/2022/10/1/h08_m29_metars.cache.csv.gz
Observed at (about 23 hours ago)
Identifier HEBA
HEBA 010700Z 07003KT CAVOK 29/21 Q1018 NOSIG
From batch tds/metars/production/2022/10/1/h07_m29_metars.cache.csv.gz
Observed at (about 24 hours ago)
Identifier HEBA
HEBA 010600Z 06004KT CAVOK 28/21 Q1018 NOSIG
From batch tds/metars/production/2022/10/1/h06_m55_metars.cache.csv.gz
Observed at (1 day ago)
Identifier HEBA
HEBA 010400Z 04006KT CAVOK 25/20 Q1017 NOSIG
From batch tds/metars/production/2022/10/1/h04_m47_metars.cache.csv.gz
Observed at (1 day ago)
Identifier HEBA
HEBA 010300Z 05004KT CAVOK 24/20 Q1017 NOSIG
From batch tds/metars/production/2022/10/1/h03_m52_metars.cache.csv.gz
Observed at (1 day ago)
Identifier HEBA
HEBA 010200Z 05003KT CAVOK 24/20 Q1017 NOSIG
From batch tds/metars/production/2022/10/1/h02_m24_metars.cache.csv.gz
Observed at (1 day ago)
Identifier HEBA
HEBA 302200Z 05007KT CAVOK 25/21 Q1017 NOSIG
From batch tds/metars/production/2022/9/30/h22_m28_metars.cache.csv.gz
Observed at (1 day ago)
Identifier HEBA
HEBA 302000Z 07007KT CAVOK 26/20 Q1016 NOSIG
From batch tds/metars/production/2022/9/30/h20_m24_metars.cache.csv.gz
Observed at (1 day ago)
Identifier HEBA
HEBA 301900Z 04007KT CAVOK 27/20 Q1016 NOSIG
From batch tds/metars/production/2022/9/30/h19_m27_metars.cache.csv.gz
Observed at (1 day ago)
Identifier HEBA
HEBA 301800Z 05009KT CAVOK 28/20 Q1016 NOSIG
From batch tds/metars/production/2022/9/30/h18_m54_metars.cache.csv.gz
Observed at (1 day ago)
Identifier HEBA
HEBA 301700Z 04006KT CAVOK 29/19 Q1015 NOSIG
From batch tds/metars/production/2022/9/30/h17_m49_metars.cache.csv.gz
Observed at (1 day ago)
Identifier HEBA
HEBA 301600Z 03008KT CAVOK 31/18 Q1015 NOSIG
From batch tds/metars/production/2022/9/30/h16_m52_metars.cache.csv.gz
Observed at (1 day ago)
Identifier HEBA
HEBA 301500Z 02009KT CAVOK 33/18 Q1015 NOSIG
From batch tds/metars/production/2022/9/30/h15_m24_metars.cache.csv.gz
Observed at (1 day ago)
Identifier HEBA
HEBA 301400Z 09005KT CAVOK 35/16 Q1014 NOSIG
From batch tds/metars/production/2022/9/30/h14_m27_metars.cache.csv.gz
Observed at (1 day ago)
Identifier HEBA
HEBA 301300Z 08006KT CAVOK 36/17 Q1015 NOSIG
From batch tds/metars/production/2022/9/30/h13_m59_metars.cache.csv.gz
Observed at (1 day ago)
Identifier HEBA
HEBA 301200Z 07007KT CAVOK 35/18 Q1015 NOSIG
From batch tds/metars/production/2022/9/30/h12_m59_metars.cache.csv.gz
Observed at (2 days ago)
Identifier HEBA
HEBA 301100Z 08005KT CAVOK 34/20 Q1016 NOSIG
From batch tds/metars/production/2022/9/30/h11_m59_metars.cache.csv.gz
Observed at (2 days ago)
Identifier HEBA
HEBA 301000Z 09007KT CAVOK 33/20 Q1016 NOSIG
From batch tds/metars/production/2022/9/30/h10_m20_metars.cache.csv.gz
Observed at (2 days ago)
Identifier HEBA
HEBA 300800Z 08006KT CAVOK 30/20 Q1016 NOSIG
From batch tds/metars/production/2022/9/30/h08_m21_metars.cache.csv.gz
Observed at (2 days ago)
Identifier HEBA
HEBA 300700Z 10005KT 6000 NSC 28/22 Q1015 NOSIG
From batch tds/metars/production/2022/9/30/h07_m29_metars.cache.csv.gz
Observed at (2 days ago)
Identifier HEBA
HEBA 300600Z 10004KT 4000 BR NSC 26/23 Q1015 NOSIG
From batch tds/metars/production/2022/9/30/h06_m59_metars.cache.csv.gz
Observed at (2 days ago)
Identifier HEBA
HEBA 300500Z 11003KT 2000 BR NSC 23/22 Q1014 NOSIG
From batch tds/metars/production/2022/9/30/h05_m23_metars.cache.csv.gz
Observed at (2 days ago)
Identifier HEBA
HEBA 300300Z 11004KT 6000 NSC 22/20 Q1014 NOSIG
From batch tds/metars/production/2022/9/30/h03_m59_metars.cache.csv.gz
Observed at (2 days ago)
Identifier HEBA
HEBA 300200Z 09003KT 6000 NSC 23/21 Q1014 NOSIG
From batch tds/metars/production/2022/9/30/h02_m29_metars.cache.csv.gz
Observed at (2 days ago)
Identifier HEBA
HEBA 300100Z 09004KT 6000 NSC 23/21 Q1013 NOSIG
From batch tds/metars/production/2022/9/30/h01_m27_metars.cache.csv.gz
Observed at (2 days ago)
Identifier HEBA
HEBA 292300Z 08007KT CAVOK 24/21 Q1013
From batch tds/metars/production/2022/9/29/h23_m29_metars.cache.csv.gz
Observed at (2 days ago)
Identifier HEBA
HEBA 292100Z 06009KT CAVOK 25/20 Q1013 NOSIG
From batch tds/metars/production/2022/9/29/h21_m51_metars.cache.csv.gz
Observed at (2 days ago)
Identifier HEBA
HEBA 292000Z 06008KT CAVOK 26/20 Q1013 NOSIG
From batch tds/metars/production/2022/9/29/h20_m23_metars.cache.csv.gz
Observed at (2 days ago)
Identifier HEBA
HEBA 291900Z 04008KT 6000 NSC 27/22 Q1013 NOSIG
From batch tds/metars/production/2022/9/29/h19_m59_metars.cache.csv.gz
Observed at (2 days ago)
Identifier HEBA
HEBA 291700Z 04006KT 6000 NSC 30/20 Q1012 NOSIG
From batch tds/metars/production/2022/9/29/h17_m22_metars.cache.csv.gz
Observed at (3 days ago)
Identifier HEBA
HEBA 291600Z 03005KT CAVOK 33/19 Q1011 NOSIG
From batch tds/metars/production/2022/9/29/h16_m24_metars.cache.csv.gz
Observed at (3 days ago)
Identifier HEBA
HEBA 291500Z 05007KT CAVOK 35/14 Q1011 NOSIG
From batch tds/metars/production/2022/9/29/h15_m29_metars.cache.csv.gz
Observed at (3 days ago)
Identifier HEBA
talk